Time;durP1;ratioP1;P1;durP2;ratioP2;P2;SDS_P1;SDS_P2;PMS_P1;PMS_P2;Temp;Humidity;BMP_temperature;BMP_pressure;BME280_temperature;BME280_humidity;BME280_pressure;Samples;Min_cycle;Max_cycle;Signal;HPM_P1;HPM_P2
2023/12/10 00:01:16;;;;;;;1.35;1.27;;;;;;;3.09;59.36;99445.59;5308248;26;20413;-85
2023/12/10 00:03:41;;;;;;;0.57;0.57;;;;;;;2.86;59.33;99444.87;5328026;26;20060;-86
2023/12/10 00:06:11;;;;;;;0.30;0.30;;;;;;;2.90;59.34;99442.28;5327389;26;20066;-86
2023/12/10 00:08:36;;;;;;;1.65;0.57;;;;;;;3.02;59.34;99449.03;5330681;26;20093;-87
2023/12/10 00:11:02;;;;;;;3.40;2.62;;;;;;;3.12;59.35;99442.13;5308297;26;26823;-87
2023/12/10 00:13:27;;;;;;;0.77;0.32;;;;;;;3.11;59.35;99430.16;5345593;26;20052;-87
2023/12/10 00:15:53;;;;;;;5.50;1.37;;;;;;;2.86;59.33;99424.31;5327321;26;20526;-86
2023/12/10 00:18:18;;;;;;;1.85;1.75;;;;;;;3.02;59.34;99423.31;5327172;26;20044;-85
2023/12/10 00:20:44;;;;;;;2.12;2.03;;;;;;;2.99;59.34;99423.34;5344535;26;26410;-85
2023/12/10 00:23:11;;;;;;;0.55;0.50;;;;;;;2.95;59.35;99424.25;5365794;26;20082;-86
2023/12/10 00:25:38;;;;;;;0.10;0.10;;;;;;;2.82;59.33;99432.88;5346170;26;20062;-85
2023/12/10 00:28:04;;;;;;;1.17;1.10;;;;;;;2.95;59.33;99429.37;5346613;26;20049;-86
2023/12/10 00:30:30;;;;;;;2.53;1.60;;;;;;;3.07;59.34;99424.16;5345653;26;20071;-86
2023/12/10 00:32:55;;;;;;;0.98;0.98;;;;;;;3.04;59.34;99424.16;5327891;26;20059;-85
2023/12/10 00:35:21;;;;;;;0.65;0.65;;;;;;;3.19;59.35;99428.34;5327549;26;20052;-85
2023/12/10 00:37:46;;;;;;;1.55;1.45;;;;;;;3.00;59.34;99425.91;5308901;26;20105;-85
2023/12/10 00:40:12;;;;;;;8.02;1.87;;;;;;;2.88;59.34;99432.88;5366202;26;20098;-84
2023/12/10 00:42:37;;;;;;;1.25;1.15;;;;;;;2.88;59.34;99427.72;5346072;26;20056;-86
2023/12/10 00:45:03;;;;;;;1.65;1.10;;;;;;;2.96;59.35;99423.38;5327178;26;20672;-86
2023/12/10 00:47:29;;;;;;;1.50;1.45;;;;;;;3.05;59.34;99418.16;5327917;26;20021;-83
2023/12/10 00:49:54;;;;;;;0.90;0.85;;;;;;;2.95;59.35;99412.25;5308365;26;31412;-86
2023/12/10 00:52:20;;;;;;;1.30;1.23;;;;;;;2.77;59.33;99414.91;5328346;26;20134;-86
2023/12/10 00:54:45;;;;;;;0.25;0.25;;;;;;;2.93;59.33;99413.13;5327429;26;32868;-84
2023/12/10 00:57:13;;;;;;;5.47;3.10;;;;;;;2.97;59.35;99409.66;5347153;26;27586;-87
2023/12/10 00:59:39;;;;;;;0.00;0.00;;;;;;;2.95;59.35;99398.53;5348742;26;20060;-87
2023/12/10 01:02:05;;;;;;;1.08;0.75;;;;;;;2.95;59.35;99401.09;5330977;26;20059;-85
2023/12/10 01:04:31;;;;;;;1.98;1.40;;;;;;;2.80;59.33;99393.47;5346163;26;20080;-86
2023/12/10 01:06:56;;;;;;;6.07;2.85;;;;;;;2.79;59.32;99384.91;5366445;26;20814;-83
2023/12/10 01:09:22;;;;;;;0.22;0.22;;;;;;;3.12;59.35;99398.41;5345269;26;26368;-86
2023/12/10 01:11:47;;;;;;;4.75;2.17;;;;;;;2.70;59.33;99397.84;5346461;26;20083;-87
2023/12/10 01:14:13;;;;;;;0.10;0.10;;;;;;;2.91;59.33;99396.84;5326877;26;20068;-85
2023/12/10 01:16:38;;;;;;;2.62;2.03;;;;;;;2.94;59.33;99389.97;5327608;26;20119;-86
2023/12/10 01:19:04;;;;;;;0.00;0.00;;;;;;;2.90;59.34;99390.00;5346060;26;20091;-86
2023/12/10 01:21:30;;;;;;;1.20;1.20;;;;;;;2.92;59.34;99389.13;5366440;26;20565;-86
2023/12/10 01:23:55;;;;;;;1.37;0.93;;;;;;;2.93;59.33;99395.12;5328501;26;20358;-85
2023/12/10 01:26:22;;;;;;;1.75;1.27;;;;;;;3.07;59.34;99399.28;5327271;26;20123;-84
2023/12/10 01:28:47;;;;;;;1.55;1.45;;;;;;;2.97;59.34;99389.09;5366054;26;20124;-86
2023/12/10 01:31:12;;;;;;;0.62;0.62;;;;;;;2.98;59.34;99378.78;5345694;26;20405;-85
2023/12/10 01:33:38;;;;;;;0.45;0.45;;;;;;;2.96;59.34;99371.97;5326365;26;36813;-86
2023/12/10 01:36:06;;;;;;;1.42;1.33;;;;;;;3.03;59.35;99376.19;5327238;26;20084;-85
2023/12/10 01:38:32;;;;;;;2.15;2.05;;;;;;;3.10;59.35;99371.88;5345480;26;20055;-87
2023/12/10 01:40:58;;;;;;;2.17;1.65;;;;;;;3.09;59.34;99383.87;5346056;26;20121;-85
2023/12/10 01:43:23;;;;;;;6.87;1.17;;;;;;;3.18;59.35;99367.50;5329242;26;20056;-85
2023/12/10 01:45:53;;;;;;;0.45;0.45;;;;;;;3.15;59.35;99359.81;5345879;26;20072;-86
2023/12/10 01:48:23;;;;;;;2.50;0.62;;;;;;;3.07;59.35;99349.56;5328161;26;20083;-85
2023/12/10 01:50:48;;;;;;;0.98;0.75;;;;;;;3.03;59.34;99353.91;5346719;26;20060;-85
2023/12/10 01:53:14;;;;;;;1.83;1.73;;;;;;;2.97;59.34;99358.25;5327155;26;20047;-87
2023/12/10 01:55:40;;;;;;;0.13;0.13;;;;;;;3.01;59.34;99350.47;5327412;26;20097;-85
2023/12/10 01:58:06;;;;;;;1.98;0.90;;;;;;;3.11;59.35;99343.56;5327015;26;20056;-86
2023/12/10 02:00:32;;;;;;;2.20;1.23;;;;;;;3.00;59.34;99335.06;5327542;26;20075;-85
2023/12/10 02:02:58;;;;;;;0.90;0.90;;;;;;;3.11;59.35;99338.44;5346097;26;20111;-86
2023/12/10 02:05:24;;;;;;;2.70;1.77;;;;;;;3.09;59.36;99332.44;5311846;26;20531;-85
2023/12/10 02:07:49;;;;;;;0.55;0.52;;;;;;;2.97;59.35;99327.38;5345082;26;31385;-86
2023/12/10 02:10:15;;;;;;;2.37;2.20;;;;;;;3.21;59.35;99328.91;5328012;26;20072;-87
2023/12/10 02:12:40;;;;;;;2.30;1.37;;;;;;;3.18;59.35;99327.22;5327310;26;20463;-87
2023/12/10 02:15:22;;;;;;;2.72;0.70;;;;;;;3.25;59.36;99330.56;5327464;26;20365;-86
2023/12/10 02:17:48;;;;;;;0.20;0.20;;;;;;;3.13;59.35;99331.53;5345748;26;20084;-86
2023/12/10 02:20:14;;;;;;;2.22;1.17;;;;;;;3.27;59.36;99314.25;5327889;26;20123;-86
2023/12/10 02:22:57;;;;;;;3.10;2.83;;;;;;;3.04;59.34;99316.19;5366847;26;20404;-87
2023/12/10 02:25:33;;;;;;;7.53;5.95;;;;;;;3.23;59.35;99304.88;5367265;26;20111;-86
2023/12/10 02:27:59;;;;;;;1.08;0.60;;;;;;;3.31;59.36;99295.38;5346985;26;20060;-86
2023/12/10 02:30:25;;;;;;;0.75;0.75;;;;;;;3.22;59.35;99298.00;5328203;26;20067;-85
2023/12/10 02:32:50;;;;;;;0.90;0.90;;;;;;;3.34;59.36;99287.63;5328841;26;20078;-86
2023/12/10 02:35:16;;;;;;;0.77;0.62;;;;;;;3.45;59.37;99281.50;5328685;26;20092;-85
2023/12/10 02:37:41;;;;;;;1.60;1.33;;;;;;;3.32;59.36;99281.66;5328366;26;20416;-86
2023/12/10 02:40:08;;;;;;;0.00;0.00;;;;;;;3.39;59.37;99257.56;5328901;26;23519;-85
2023/12/10 02:42:33;;;;;;;2.20;2.05;;;;;;;3.48;59.38;99242.88;5367005;26;20460;-86
2023/12/10 02:44:59;;;;;;;2.95;2.00;;;;;;;3.40;59.37;99242.97;5324100;26;20056;-86
2023/12/10 02:47:24;;;;;;;2.37;2.22;;;;;;;3.31;59.35;99250.75;5344747;26;20056;-86
2023/12/10 02:49:50;;;;;;;0.13;0.13;;;;;;;3.30;59.36;99239.63;5342620;26;20301;-85
2023/12/10 02:52:15;;;;;;;1.33;1.30;;;;;;;3.19;59.35;99235.47;5323990;26;20509;-86
2023/12/10 02:54:41;;;;;;;9.05;2.95;;;;;;;3.13;59.35;99227.84;5324815;26;20094;-87
2023/12/10 02:57:06;;;;;;;0.00;0.00;;;;;;;3.14;59.35;99225.25;5324709;26;20104;-85
2023/12/10 02:59:32;;;;;;;0.00;0.00;;;;;;;3.28;59.36;99225.94;5324492;26;20397;-84
2023/12/10 03:01:57;;;;;;;1.27;1.23;;;;;;;3.05;59.34;99235.59;5345098;26;20947;-85
2023/12/10 03:04:22;;;;;;;9.13;1.23;;;;;;;3.08;59.35;99233.88;5343024;26;20071;-85
2023/12/10 03:06:48;;;;;;;1.52;0.52;;;;;;;3.11;59.35;99240.72;5324550;26;20419;-86
2023/12/10 03:09:13;;;;;;;0.15;0.15;;;;;;;3.02;59.35;99226.19;5344275;26;20063;-84
2023/12/10 03:11:38;;;;;;;0.88;0.88;;;;;;;2.64;59.33;99224.00;5342613;26;20342;-85
2023/12/10 03:14:04;;;;;;;1.52;1.42;;;;;;;2.85;59.33;99217.81;5323926;26;20044;-84
2023/12/10 03:16:30;;;;;;;1.08;0.65;;;;;;;2.81;59.34;99221.25;5324319;26;20118;-85
2023/12/10 03:18:58;;;;;;;2.65;2.28;;;;;;;2.80;59.34;99222.13;5342884;26;20060;-85
2023/12/10 03:21:27;;;;;;;3.10;2.47;;;;;;;3.21;59.36;99226.88;5344782;26;27997;-85
2023/12/10 03:23:53;;;;;;;1.23;1.12;;;;;;;3.10;59.35;99230.44;5340851;26;20031;-84
2023/12/10 03:26:18;;;;;;;0.77;0.77;;;;;;;3.32;59.36;99231.91;5329344;26;20077;-86
2023/12/10 03:28:43;;;;;;;0.75;0.75;;;;;;;3.29;59.36;99248.22;5307655;26;20078;-86
2023/12/10 03:31:09;;;;;;;0.57;0.57;;;;;;;3.17;59.36;99245.78;5344569;26;20090;-86
2023/12/10 03:33:34;;;;;;;1.35;1.17;;;;;;;3.33;59.37;99255.06;5342548;26;20040;-87
2023/12/10 03:36:00;;;;;;;0.95;0.95;;;;;;;3.28;59.36;99258.50;5342863;26;20068;-86
2023/12/10 03:38:26;;;;;;;1.80;0.40;;;;;;;3.34;59.36;99256.75;5324377;26;20057;-85
2023/12/10 03:40:51;;;;;;;0.20;0.20;;;;;;;3.39;59.37;99257.56;5343050;26;20425;-84
2023/12/10 03:43:16;;;;;;;1.50;1.40;;;;;;;3.53;59.38;99251.38;5342319;26;20045;-86
2023/12/10 03:45:42;;;;;;;2.83;2.42;;;;;;;3.54;59.38;99246.22;5361263;26;20056;-86
2023/12/10 03:48:07;;;;;;;1.60;1.45;;;;;;;3.58;59.38;99247.91;5308704;26;35924;-86
2023/12/10 03:50:32;;;;;;;0.37;0.37;;;;;;;3.59;59.38;99254.75;5366259;26;20036;-86
2023/12/10 03:52:58;;;;;;;2.40;1.58;;;;;;;3.76;59.38;99248.53;5345980;26;22860;-86
2023/12/10 03:55:23;;;;;;;0.20;0.20;;;;;;;3.79;59.39;99241.66;5346754;26;20111;-86
2023/12/10 03:57:50;;;;;;;2.05;1.95;;;;;;;3.78;59.39;99232.19;5346825;26;20444;-86
2023/12/10 04:00:16;;;;;;;2.17;2.00;;;;;;;3.70;59.38;99234.88;5346927;26;20104;-86
2023/12/10 04:02:42;;;;;;;5.85;1.87;;;;;;;3.69;59.38;99224.59;5346483;26;20170;-86
2023/12/10 04:05:11;;;;;;;1.17;1.17;;;;;;;3.63;59.38;99240.97;5366393;26;20064;-87
2023/12/10 04:07:38;;;;;;;0.75;0.68;;;;;;;3.56;59.37;99233.34;5347209;26;20059;-86
2023/12/10 04:10:03;;;;;;;2.22;2.03;;;;;;;3.47;59.38;99243.75;5328016;26;20041;-86
2023/12/10 04:12:30;;;;;;;0.20;0.20;;;;;;;3.57;59.38;99243.62;5346375;26;20036;-85
2023/12/10 04:14:56;;;;;;;2.87;2.67;;;;;;;3.55;59.37;99242.81;5366638;26;20440;-86
2023/12/10 04:17:21;;;;;;;0.32;0.32;;;;;;;3.56;59.37;99239.34;5367130;26;20083;-86
2023/12/10 04:19:46;;;;;;;3.15;1.27;;;;;;;3.54;59.38;99230.78;5365984;26;20094;-85
2023/12/10 04:22:13;;;;;;;1.92;1.80;;;;;;;3.55;59.37;99231.63;5310161;26;20063;-86
2023/12/10 04:24:38;;;;;;;8.32;2.28;;;;;;;3.60;59.37;99224.72;5347626;26;20071;-87
2023/12/10 04:27:04;;;;;;;0.55;0.55;;;;;;;3.53;59.38;99221.34;5367635;26;20048;-86
2023/12/10 04:29:29;;;;;;;1.42;0.80;;;;;;;3.52;59.37;99224.78;5328687;26;20064;-86
2023/12/10 04:31:55;;;;;;;1.80;0.93;;;;;;;3.53;59.38;99221.34;5328663;26;20332;-84
2023/12/10 04:34:20;;;;;;;1.75;1.65;;;;;;;3.68;59.38;99221.16;5346287;26;32117;-85
2023/12/10 04:36:45;;;;;;;2.62;1.50;;;;;;;3.68;59.38;99228.03;5366715;26;27777;-85
2023/12/10 04:39:11;;;;;;;0.15;0.15;;;;;;;3.54;59.38;99229.91;5348865;26;20379;-85
2023/12/10 04:41:36;;;;;;;2.12;1.50;;;;;;;3.57;59.38;99235.91;5326256;26;86665;-85
2023/12/10 04:44:02;;;;;;;0.60;0.60;;;;;;;3.51;59.37;99230.81;5310539;26;20361;-85
2023/12/10 04:46:28;;;;;;;0.00;0.00;;;;;;;3.60;59.37;99232.44;5347434;26;20432;-85
2023/12/10 04:48:54;;;;;;;1.23;1.12;;;;;;;3.47;59.37;99236.03;5367300;26;20052;-84
2023/12/10 04:51:19;;;;;;;0.98;0.52;;;;;;;3.41;59.37;99239.53;5329009;26;20061;-85
2023/12/10 04:53:44;;;;;;;0.62;0.40;;;;;;;3.47;59.37;99244.59;5367441;26;20346;-85
2023/12/10 04:56:10;;;;;;;1.83;1.67;;;;;;;3.53;59.38;99243.66;5346654;26;22071;-85
2023/12/10 04:58:35;;;;;;;0.62;0.62;;;;;;;3.59;59.37;99246.19;5346625;26;21881;-86
2023/12/10 05:01:02;;;;;;;0.30;0.30;;;;;;;3.53;59.38;99252.22;5310630;26;20103;-86
2023/12/10 05:03:28;;;;;;;0.90;0.45;;;;;;;3.74;59.38;99245.13;5311518;26;20410;-85
2023/12/10 05:05:53;;;;;;;1.17;0.47;;;;;;;3.56;59.37;99253.94;5347964;26;20064;-86
2023/12/10 05:08:18;;;;;;;2.03;1.58;;;;;;;3.72;59.38;99245.16;5329884;26;20095;-86
2023/12/10 05:10:44;;;;;;;0.20;0.20;;;;;;;3.53;59.38;99236.78;5311932;26;20083;-86
2023/12/10 05:13:09;;;;;;;0.10;0.10;;;;;;;3.50;59.37;99233.41;5313710;26;20077;-85
2023/12/10 05:15:36;;;;;;;2.75;1.05;;;;;;;3.69;59.38;99224.59;5346888;26;20107;-86
2023/12/10 05:18:04;;;;;;;0.52;0.52;;;;;;;3.53;59.38;99223.91;5311124;26;20078;-85
2023/12/10 05:20:30;;;;;;;0.10;0.10;;;;;;;3.66;59.38;99222.91;5330099;26;20048;-86
2023/12/10 05:22:58;;;;;;;0.62;0.62;;;;;;;3.52;59.37;99218.81;5347797;26;20067;-86
2023/12/10 05:25:24;;;;;;;0.40;0.40;;;;;;;3.62;59.38;99222.97;5347657;26;20145;-86
2023/12/10 05:27:49;;;;;;;0.00;0.00;;;;;;;3.64;59.38;99222.09;5329282;26;20079;-85
2023/12/10 05:30:14;;;;;;;0.17;0.17;;;;;;;3.60;59.37;99223.00;5346240;26;33241;-86
2023/12/10 05:32:40;;;;;;;0.28;0.28;;;;;;;3.36;59.36;99228.44;5309934;26;24911;-86
2023/12/10 05:35:05;;;;;;;1.37;0.93;;;;;;;3.38;59.36;99235.25;5310375;26;31332;-85
2023/12/10 05:37:31;;;;;;;0.00;0.00;;;;;;;3.46;59.37;99242.88;5329113;26;20079;-86
2023/12/10 05:39:57;;;;;;;1.45;1.35;;;;;;;3.52;59.37;99242.81;5367405;26;20409;-84
2023/12/10 05:42:22;;;;;;;0.05;0.05;;;;;;;3.65;59.38;99243.53;5328707;26;20091;-88
2023/12/10 05:44:48;;;;;;;0.55;0.50;;;;;;;3.48;59.37;99240.28;5328696;26;20100;-89
2023/12/10 05:47:13;;;;;;;1.08;0.98;;;;;;;3.71;59.38;99238.28;5328860;26;20051;-88
2023/12/10 05:49:39;;;;;;;1.20;1.20;;;;;;;3.47;59.38;99239.44;5327554;26;25083;-89
2023/12/10 05:52:05;;;;;;;0.95;0.90;;;;;;;3.50;59.37;99238.56;5367822;26;20065;-88
2023/12/10 05:54:31;;;;;;;1.80;1.00;;;;;;;3.47;59.37;99233.44;5347337;26;20060;-87
2023/12/10 05:56:56;;;;;;;0.43;0.35;;;;;;;3.63;59.38;99238.41;5311255;26;20068;-87
2023/12/10 05:59:21;;;;;;;3.72;1.45;;;;;;;3.52;59.37;99237.66;5328783;26;20068;-89
2023/12/10 06:01:47;;;;;;;0.00;0.00;;;;;;;3.46;59.37;99235.16;5309910;26;20115;-89
2023/12/10 06:04:12;;;;;;;0.35;0.35;;;;;;;3.49;59.37;99254.87;5367235;26;20379;-88
2023/12/10 06:06:38;;;;;;;1.17;1.17;;;;;;;3.73;59.39;99240.84;5347105;26;20068;-89
2023/12/10 06:09:03;;;;;;;2.28;1.83;;;;;;;3.72;59.39;99237.44;5310099;26;20071;-89
2023/12/10 06:11:29;;;;;;;0.43;0.43;;;;;;;3.74;59.38;99243.41;5328913;26;20071;-88
2023/12/10 06:13:54;;;;;;;0.00;0.00;;;;;;;3.64;59.38;99242.69;5310405;26;20059;-88
2023/12/10 06:16:20;;;;;;;1.37;1.27;;;;;;;3.68;59.39;99236.63;5329042;26;20079;-89
2023/12/10 06:18:45;;;;;;;4.18;0.90;;;;;;;3.55;59.37;99239.34;5347082;26;20043;-88
2023/12/10 06:21:11;;;;;;;5.28;3.70;;;;;;;3.59;59.38;99234.16;5347391;26;20052;-87
2023/12/10 06:23:36;;;;;;;2.65;2.30;;;;;;;3.74;59.38;99245.13;5347527;26;20062;-88
2023/12/10 06:26:01;;;;;;;0.10;0.10;;;;;;;3.66;59.38;99240.09;5310694;26;20104;-89
2023/12/10 06:28:27;;;;;;;0.57;0.47;;;;;;;3.67;59.38;99249.50;5347221;26;20343;-89
2023/12/10 06:30:52;;;;;;;1.15;1.08;;;;;;;3.58;59.37;99252.19;5347721;26;20448;-89
2023/12/10 06:33:18;;;;;;;2.30;0.55;;;;;;;3.74;59.38;99253.69;5330273;26;20139;-89
2023/12/10 06:35:43;;;;;;;2.15;1.10;;;;;;;3.64;59.38;99254.69;5328528;26;20058;-91
2023/12/10 06:38:09;;;;;;;5.57;2.08;;;;;;;3.81;59.38;99255.34;5327930;26;20058;-90
2023/12/10 06:40:34;;;;;;;0.85;0.85;;;;;;;3.93;59.39;99257.75;5310139;26;20104;-90
2023/12/10 06:43:00;;;;;;;0.40;0.40;;;;;;;3.78;59.39;99263.06;5309824;26;20068;-90
2023/12/10 06:45:25;;;;;;;0.80;0.80;;;;;;;3.69;59.39;99270.94;5310199;26;20364;-89
2023/12/10 06:47:50;;;;;;;0.75;0.75;;;;;;;3.70;59.38;99275.19;5309830;26;20377;-90
2023/12/10 06:50:17;;;;;;;1.30;1.25;;;;;;;3.72;59.39;99278.59;5310039;26;20072;-90
2023/12/10 06:52:43;;;;;;;0.98;0.98;;;;;;;3.69;59.39;99276.06;5313489;26;20074;-90
2023/12/10 06:55:09;;;;;;;1.02;0.93;;;;;;;3.62;59.38;99287.31;5328990;26;20378;-90
2023/12/10 06:57:34;;;;;;;0.40;0.20;;;;;;;3.79;59.39;99287.97;5310350;26;20388;-90
2023/12/10 06:59:59;;;;;;;1.58;1.48;;;;;;;3.72;59.38;99291.47;5310203;26;20115;-91
2023/12/10 07:02:25;;;;;;;0.95;0.93;;;;;;;3.90;59.39;99298.13;5328406;26;20389;-89
2023/12/10 07:04:50;;;;;;;1.60;1.50;;;;;;;3.89;59.39;99293.84;5346900;26;20090;-89
2023/12/10 07:07:16;;;;;;;7.70;1.50;;;;;;;4.00;59.40;99290.25;5309966;26;20074;-87
2023/12/10 07:09:41;;;;;;;1.77;1.67;;;;;;;3.87;59.39;99296.44;5366806;26;20088;-86
2023/12/10 07:12:07;;;;;;;11.65;9.13;;;;;;;4.05;59.41;99292.81;5347826;26;20065;-87
2023/12/10 07:14:32;;;;;;;7.10;5.30;;;;;;;4.04;59.40;99297.97;5367059;26;20045;-87
2023/12/10 07:16:57;;;;;;;4.37;2.35;;;;;;;4.12;59.40;99299.56;5310123;26;20071;-87
2023/12/10 07:19:23;;;;;;;2.40;2.20;;;;;;;4.01;59.40;99302.25;5346430;26;20064;-88
2023/12/10 07:21:52;;;;;;;1.12;1.10;;;;;;;3.95;59.40;99302.34;5328675;26;20114;-87
2023/12/10 07:24:18;;;;;;;3.43;3.23;;;;;;;3.89;59.39;99306.72;5346588;26;20051;-86
2023/12/10 07:26:43;;;;;;;0.10;0.10;;;;;;;4.02;59.40;99303.12;5366561;26;20488;-86
2023/12/10 07:29:09;;;;;;;1.70;1.55;;;;;;;3.99;59.40;99311.72;5327210;26;20644;-85
2023/12/10 07:31:34;;;;;;;0.52;0.52;;;;;;;4.09;59.40;99306.47;5328208;26;20104;-87
2023/12/10 07:33:59;;;;;;;0.90;0.70;;;;;;;4.21;59.41;99312.31;5369687;26;20347;-86
2023/12/10 07:36:25;;;;;;;2.28;0.95;;;;;;;4.16;59.41;99313.25;5355483;26;20033;-84
2023/12/10 07:38:51;;;;;;;1.77;1.65;;;;;;;4.24;59.41;99309.69;5345224;26;20068;-85
2023/12/10 07:41:16;;;;;;;1.37;1.27;;;;;;;4.25;59.41;99307.97;5344126;26;20056;-86
2023/12/10 07:43:42;;;;;;;0.13;0.13;;;;;;;4.26;59.41;99317.44;5368220;26;20091;-85
2023/12/10 07:46:07;;;;;;;1.40;1.30;;;;;;;4.30;59.42;99311.34;5346664;26;20460;-86
2023/12/10 07:48:33;;;;;;;3.78;2.92;;;;;;;4.31;59.41;99313.91;5308929;26;31657;-86
2023/12/10 07:50:59;;;;;;;0.65;0.65;;;;;;;4.35;59.42;99319.88;5367230;26;20079;-86
2023/12/10 07:53:24;;;;;;;0.20;0.20;;;;;;;4.23;59.41;99320.03;5366773;26;20052;-86
2023/12/10 07:55:50;;;;;;;0.80;0.80;;;;;;;4.12;59.39;99312.44;5328782;26;20327;-86
2023/12/10 07:58:15;;;;;;;3.85;2.12;;;;;;;4.10;59.40;99318.50;5329530;26;20115;-87
2023/12/10 08:00:41;;;;;;;2.53;2.42;;;;;;;4.19;59.40;99319.22;5309938;26;32229;-87
2023/12/10 08:03:06;;;;;;;3.97;3.58;;;;;;;4.32;59.41;99322.50;5329369;26;20062;-86
2023/12/10 08:05:32;;;;;;;0.68;0.68;;;;;;;4.41;59.42;99324.94;5329346;26;20115;-86
2023/12/10 08:08:02;;;;;;;1.25;1.15;;;;;;;4.45;59.42;99329.16;5329629;26;20061;-86
2023/12/10 08:10:28;;;;;;;9.32;3.42;;;;;;;4.66;59.44;99322.00;5348916;26;20118;-87
2023/12/10 08:12:54;;;;;;;1.05;1.05;;;;;;;4.58;59.43;99322.97;5310710;26;20064;-87
2023/12/10 08:15:20;;;;;;;0.40;0.40;;;;;;;4.50;59.43;99329.97;5367969;26;20064;-87
2023/12/10 08:17:45;;;;;;;0.10;0.10;;;;;;;4.61;59.43;99333.22;5329161;26;20067;-87
2023/12/10 08:20:11;;;;;;;1.25;1.15;;;;;;;4.69;59.44;99340.00;5367833;26;20079;-87
2023/12/10 08:22:36;;;;;;;0.68;0.68;;;;;;;4.70;59.44;99333.97;5347532;26;20048;-87
2023/12/10 08:25:02;;;;;;;0.03;0.03;;;;;;;4.83;59.44;99333.75;5347016;26;26439;-92
2023/12/10 08:27:28;;;;;;;1.55;1.00;;;;;;;4.73;59.44;99337.37;5311919;26;20028;-91
2023/12/10 08:29:53;;;;;;;0.45;0.45;;;;;;;4.70;59.44;99346.84;5314153;26;20051;-92
2023/12/10 08:32:19;;;;;;;0.65;0.65;;;;;;;4.78;59.44;99351.03;5311092;26;20060;-91
2023/12/10 08:34:44;;;;;;;1.45;1.35;;;;;;;4.69;59.44;99347.72;5310790;26;20096;-91
2023/12/10 08:37:11;;;;;;;0.82;0.82;;;;;;;4.53;59.43;99341.97;5329518;26;20098;-91
2023/12/10 08:39:36;;;;;;;1.27;1.15;;;;;;;4.54;59.43;99341.94;5329882;26;20836;-91
2023/12/10 08:42:02;;;;;;;0.45;0.45;;;;;;;4.88;59.45;99351.75;5347842;26;20060;-91
2023/12/10 08:44:27;;;;;;;1.30;1.20;;;;;;;4.90;59.45;99353.41;5310819;26;20415;-92
2023/12/10 08:46:53;;;;;;;0.32;0.30;;;;;;;4.73;59.45;99355.41;5311263;26;20392;-92
2023/12/10 08:49:18;;;;;;;1.27;1.25;;;;;;;4.88;59.45;99351.75;5313188;26;20408;-91
2023/12/10 08:51:44;;;;;;;2.50;1.55;;;;;;;5.01;59.46;99361.00;5328382;26;20064;-91
2023/12/10 08:54:09;;;;;;;0.50;0.50;;;;;;;5.04;59.46;99360.94;5330657;26;20039;-91
2023/12/10 08:56:35;;;;;;;0.20;0.20;;;;;;;5.10;59.46;99372.91;5329991;26;20060;-89
2023/12/10 08:59:00;;;;;;;1.23;0.85;;;;;;;5.05;59.46;99375.56;5344798;26;20095;-89
2023/12/10 09:01:26;;;;;;;8.38;3.80;;;;;;;5.03;59.46;99382.47;5330187;26;20095;-90
2023/12/10 09:03:51;;;;;;;3.65;2.83;;;;;;;5.19;59.46;99385.63;5310664;26;20569;-90
2023/12/10 09:06:16;;;;;;;6.70;5.25;;;;;;;5.04;59.46;99393.63;5327809;26;25601;-91
2023/12/10 09:08:42;;;;;;;1.30;1.25;;;;;;;5.15;59.46;99383.97;5309874;26;22530;-92
2023/12/10 09:11:08;;;;;;;1.83;1.73;;;;;;;5.35;59.47;99391.41;5310543;26;20385;-90
2023/12/10 09:13:35;;;;;;;0.98;0.98;;;;;;;5.30;59.47;99395.78;5310656;26;20044;-90
2023/12/10 09:16:00;;;;;;;0.10;0.10;;;;;;;5.28;59.47;99393.25;5310991;26;20034;-91
2023/12/10 09:18:26;;;;;;;2.80;0.98;;;;;;;5.41;59.48;99393.88;5312072;26;20056;-91
2023/12/10 09:20:52;;;;;;;1.40;1.35;;;;;;;5.21;59.46;99397.66;5330465;26;20577;-90
2023/12/10 09:23:17;;;;;;;0.82;0.82;;;;;;;5.58;59.49;99386.69;5312355;26;20053;-91
2023/12/10 09:25:43;;;;;;;0.80;0.80;;;;;;;5.55;59.49;99385.03;5351770;26;20127;-91
2023/12/10 09:28:08;;;;;;;0.93;0.93;;;;;;;5.49;59.48;99384.28;5330103;26;20056;-91
2023/12/10 09:30:34;;;;;;;0.95;0.95;;;;;;;5.55;59.49;99392.78;5329974;26;20441;-91
2023/12/10 09:32:59;;;;;;;1.98;1.45;;;;;;;5.79;59.50;99382.88;5310990;26;20318;-92
2023/12/10 09:35:25;;;;;;;0.10;0.10;;;;;;;6.11;59.51;99390.91;5347333;26;20048;-92
2023/12/10 09:37:50;;;;;;;1.48;1.37;;;;;;;5.92;59.51;99392.16;5329059;26;20047;-91
2023/12/10 09:40:15;;;;;;;3.87;2.42;;;;;;;5.93;59.51;99385.25;5347377;26;20445;-89
2023/12/10 09:42:41;;;;;;;1.80;1.65;;;;;;;5.87;59.50;99389.59;5310523;26;20107;-91
2023/12/10 09:45:07;;;;;;;2.87;2.67;;;;;;;6.01;59.51;99391.97;5309881;26;21526;-91
2023/12/10 09:47:33;;;;;;;1.50;1.20;;;;;;;6.26;59.52;99384.59;5332431;26;20055;-90
2023/12/10 09:49:58;;;;;;;0.75;0.65;;;;;;;6.26;59.52;99389.75;5328317;26;20355;-89
2023/12/10 09:52:24;;;;;;;0.80;0.80;;;;;;;6.38;59.53;99391.22;5309792;26;20142;-89
2023/12/10 09:54:52;;;;;;;5.15;1.35;;;;;;;6.47;59.54;99391.03;5328440;26;20427;-90
2023/12/10 09:57:18;;;;;;;0.50;0.50;;;;;;;6.48;59.54;99392.75;5329115;26;20116;-90
2023/12/10 09:59:44;;;;;;;4.65;1.87;;;;;;;6.63;59.54;99395.00;5310023;26;20053;-90
2023/12/10 10:02:10;;;;;;;2.47;2.28;;;;;;;6.55;59.54;99396.91;5328488;26;20110;-91
2023/12/10 10:04:38;;;;;;;0.43;0.43;;;;;;;6.52;59.54;99402.12;5329333;26;20113;-90
2023/12/10 10:07:05;;;;;;;2.97;1.05;;;;;;;6.54;59.54;99402.09;5314109;26;20117;-91
2023/12/10 10:09:33;;;;;;;0.65;0.65;;;;;;;6.23;59.53;99392.41;5310148;26;20412;-92
2023/12/10 10:11:58;;;;;;;0.55;0.55;;;;;;;6.41;59.53;99394.62;5310580;26;20047;-90
2023/12/10 10:14:24;;;;;;;0.25;0.25;;;;;;;6.00;59.51;99395.44;5328796;26;20450;-92
2023/12/10 10:16:49;;;;;;;0.13;0.13;;;;;;;6.19;59.52;99384.75;5310456;26;20111;-92
2023/12/10 10:19:15;;;;;;;0.80;0.80;;;;;;;6.28;59.53;99382.81;5309573;26;20609;-92
2023/12/10 10:21:42;;;;;;;1.27;0.95;;;;;;;6.28;59.53;99390.56;5310995;26;20314;-92
2023/12/10 10:24:07;;;;;;;0.75;0.75;;;;;;;6.33;59.53;99393.06;5311010;26;20064;-92
2023/12/10 10:26:34;;;;;;;4.28;2.05;;;;;;;6.38;59.53;99397.25;5310400;26;20101;-91
2023/12/10 10:28:59;;;;;;;1.08;0.90;;;;;;;6.49;59.53;99397.03;5329264;26;20732;-91
2023/12/10 10:31:25;;;;;;;0.35;0.35;;;;;;;6.81;59.56;99388.56;5311225;26;20066;-90
2023/12/10 10:33:50;;;;;;;1.80;1.67;;;;;;;6.65;59.54;99393.25;5311123;26;20093;-90
2023/12/10 10:36:34;;;;;;;0.80;0.80;;;;;;;6.54;59.54;99396.94;5311881;26;20391;-90
2023/12/10 10:39:00;;;;;;;2.10;1.92;;;;;;;6.40;59.53;99399.81;5333705;26;20024;-90
2023/12/10 10:41:26;;;;;;;0.65;0.65;;;;;;;6.46;59.54;99410.03;5334009;26;20094;-93
2023/12/10 10:43:51;;;;;;;5.47;1.20;;;;;;;6.52;59.54;99409.03;5315097;26;20083;-91
2023/12/10 10:46:19;;;;;;;1.73;1.58;;;;;;;6.39;59.53;99406.72;5313140;26;20075;-91
2023/12/10 10:48:44;;;;;;;2.25;1.48;;;;;;;6.52;59.54;99409.88;5313455;26;20051;-93
2023/12/10 10:51:10;;;;;;;1.60;1.50;;;;;;;6.42;59.53;99408.38;5313060;26;20079;-92
2023/12/10 10:53:35;;;;;;;2.70;1.52;;;;;;;6.38;59.53;99411.91;5312668;26;20098;-90
2023/12/10 10:56:02;;;;;;;0.20;0.20;;;;;;;6.38;59.53;99404.16;5312466;26;20605;-92
2023/12/10 10:58:29;;;;;;;1.83;1.25;;;;;;;6.60;59.55;99409.72;5313149;26;20053;-92
2023/12/10 11:01:35;;;;;;;0.10;0.10;;;;;;;6.55;59.54;99414.16;5311053;26;20102;-92
2023/12/10 11:04:00;;;;;;;1.75;0.80;;;;;;;6.38;59.53;99405.00;5351121;26;20052;-91
2023/12/10 11:06:25;;;;;;;2.00;1.40;;;;;;;6.25;59.52;99406.13;5310615;26;20082;-92
2023/12/10 11:08:57;;;;;;;0.20;0.20;;;;;;;6.31;59.53;99408.59;5310337;26;20104;-90
2023/12/10 11:11:24;;;;;;;5.25;1.40;;;;;;;6.27;59.52;99408.69;5310837;26;20064;-92
2023/12/10 11:13:55;;;;;;;13.50;1.98;;;;;;;6.37;59.53;99410.19;5310648;26;20713;-90
2023/12/10 11:16:23;;;;;;;0.10;0.10;;;;;;;6.31;59.53;99418.94;5312042;26;20445;-93
2023/12/10 11:19:17;;;;;;;3.10;2.12;;;;;;;6.56;59.54;99410.66;5329426;26;20429;-92
2023/12/10 11:21:43;;;;;;;0.75;0.75;;;;;;;6.50;59.53;99415.97;5314825;26;20066;-93
2023/12/10 11:24:23;;;;;;;2.45;0.75;;;;;;;6.85;59.56;99408.28;5332364;26;20060;-90
2023/12/10 11:27:11;;;;;;;1.12;0.88;;;;;;;6.74;59.56;99420.63;5312883;26;20105;-92
2023/12/10 11:32:34;;;;;;;1.12;1.02;;;;;;;6.58;59.55;99430.44;5337495;26;20064;-90
2023/12/10 11:34:59;;;;;;;0.05;0.05;;;;;;;6.72;59.55;99430.16;5311474;26;20080;-91
2023/12/10 11:37:43;;;;;;;0.95;0.95;;;;;;;6.81;59.56;99422.19;5311244;26;20056;-93
2023/12/10 11:40:09;;;;;;;4.07;2.03;;;;;;;6.71;59.54;99437.06;5313299;26;20067;-90